createdAt,value
2023-05-10T00:01:16.779Z,97748.00
2023-05-10T00:03:44.685Z,97743.84
2023-05-10T00:06:13.122Z,97727.75
2023-05-10T00:08:40.914Z,97733.75
2023-05-10T00:11:08.569Z,97736.28
2023-05-10T00:13:36.316Z,97733.69
2023-05-10T00:16:04.155Z,97726.13
2023-05-10T00:18:31.938Z,97733.38
2023-05-10T00:20:59.647Z,97732.44
2023-05-10T00:23:27.432Z,97730.75
2023-05-10T00:25:55.234Z,97727.91
2023-05-10T00:28:23.053Z,97723.59
2023-05-10T00:30:50.765Z,97717.84
2023-05-10T00:33:19.290Z,97722.25
2023-05-10T00:35:47.096Z,97721.47
2023-05-10T00:38:15.333Z,97722.28
2023-05-10T00:40:43.345Z,97717.66
2023-05-10T00:43:18.097Z,97717.31
2023-05-10T00:45:45.890Z,97719.88
2023-05-10T00:48:13.685Z,97718.63
2023-05-10T00:50:41.578Z,97714.91
2023-05-10T00:53:09.854Z,97710.69
2023-05-10T00:55:38.185Z,97703.50
2023-05-10T00:58:05.899Z,97709.88
2023-05-10T01:00:33.965Z,97709.53
2023-05-10T01:03:02.350Z,97704.72
2023-05-10T01:05:30.330Z,97696.38
2023-05-10T01:07:59.031Z,97703.94
2023-05-10T01:10:26.777Z,97696.28
2023-05-10T01:12:54.514Z,97693.19
2023-05-10T01:15:22.291Z,97695.34
2023-05-10T01:17:50.064Z,97703.88
2023-05-10T01:20:18.150Z,97698.84
2023-05-10T01:23:00.033Z,97697.88
2023-05-10T01:25:55.014Z,97692.88
2023-05-10T01:28:36.856Z,97696.47
2023-05-10T01:31:19.875Z,97696.28
2023-05-10T01:33:56.665Z,97691.31
2023-05-10T01:36:28.037Z,97692.22
2023-05-10T01:39:14.575Z,97691.22
2023-05-10T01:42:21.362Z,97687.53
2023-05-10T01:45:08.294Z,97688.75
2023-05-10T01:47:45.343Z,97687.97
2023-05-10T01:50:20.727Z,97676.03
2023-05-10T01:52:53.214Z,97687.41
2023-05-10T01:55:21.821Z,97682.31
2023-05-10T01:57:54.010Z,97683.41
2023-05-10T02:00:21.800Z,97687.06
2023-05-10T02:02:53.068Z,97691.88
2023-05-10T02:05:20.890Z,97692.22
2023-05-10T02:07:48.594Z,97688.41
2023-05-10T02:10:16.511Z,97683.00
2023-05-10T02:12:45.937Z,97674.47
2023-05-10T02:15:15.348Z,97682.47
2023-05-10T02:17:43.207Z,97679.84
2023-05-10T02:20:11.334Z,97680.19
2023-05-10T02:22:39.166Z,97690.06
2023-05-10T02:25:07.223Z,97682.22
2023-05-10T02:27:35.111Z,97676.38
2023-05-10T02:30:02.831Z,97677.50
2023-05-10T02:32:30.920Z,97676.56
2023-05-10T02:34:58.633Z,97674.47
2023-05-10T02:37:26.379Z,97680.75
2023-05-10T02:39:55.125Z,97675.59
2023-05-10T02:42:28.189Z,97673.34
2023-05-10T02:45:00.141Z,97668.75
2023-05-10T02:47:28.709Z,97667.03
2023-05-10T02:49:56.474Z,97668.69
2023-05-10T02:52:30.011Z,97668.69
2023-05-10T02:55:01.748Z,97669.06
2023-05-10T02:57:31.822Z,97669.41
2023-05-10T03:00:01.161Z,97661.78
2023-05-10T03:02:29.137Z,97670.53
2023-05-10T03:04:57.199Z,97670.41
2023-05-10T03:07:25.226Z,97663.00
2023-05-10T03:09:52.920Z,97670.19
2023-05-10T03:12:20.589Z,97668.25
2023-05-10T03:15:13.074Z,97669.75
2023-05-10T03:17:58.305Z,97657.78
2023-05-10T03:20:27.575Z,97658.13
2023-05-10T03:22:57.831Z,97659.63
2023-05-10T03:25:25.808Z,97659.28
2023-05-10T03:27:54.618Z,97666.50
2023-05-10T03:30:22.666Z,97663.59
2023-05-10T03:32:50.499Z,97673.22
2023-05-10T03:35:19.177Z,97670.94
2023-05-10T03:37:46.993Z,97668.03
2023-05-10T03:40:14.874Z,97669.44
2023-05-10T03:42:44.220Z,97672.22
2023-05-10T03:45:12.782Z,97678.56
2023-05-10T03:47:40.590Z,97675.16
2023-05-10T03:50:08.839Z,97672.22
2023-05-10T03:52:36.842Z,97672.59
2023-05-10T03:55:05.062Z,97673.63
2023-05-10T03:57:32.923Z,97685.59
2023-05-10T04:00:01.388Z,97676.28
2023-05-10T04:02:29.329Z,97667.00
2023-05-10T04:04:57.409Z,97675.13
2023-05-10T04:07:25.278Z,97680.44
2023-05-10T04:09:53.432Z,97679.31
2023-05-10T04:12:23.279Z,97679.13
2023-05-10T04:14:50.995Z,97677.28
2023-05-10T04:17:18.764Z,97685.81
2023-05-10T04:19:46.482Z,97685.09
2023-05-10T04:22:14.238Z,97694.94
2023-05-10T04:24:41.896Z,97695.38
2023-05-10T04:27:09.596Z,97689.22
2023-05-10T04:29:37.306Z,97687.41
2023-05-10T04:32:05.443Z,97682.47
2023-05-10T04:34:35.145Z,97687.03
2023-05-10T04:37:02.900Z,97693.28
2023-05-10T04:39:30.777Z,97693.00
2023-05-10T04:41:58.500Z,97683.09
2023-05-10T04:44:26.197Z,97681.16
2023-05-10T04:46:53.956Z,97682.69
2023-05-10T04:49:21.675Z,97688.44
2023-05-10T04:51:49.437Z,97678.00
2023-05-10T04:54:17.151Z,97686.78
2023-05-10T04:56:44.877Z,97681.63
2023-05-10T04:59:12.744Z,97680.34
2023-05-10T05:01:40.750Z,97692.41
2023-05-10T05:04:08.519Z,97692.38
2023-05-10T05:06:36.299Z,97690.06
2023-05-10T05:09:04.204Z,97690.22
2023-05-10T05:11:31.941Z,97690.56
2023-05-10T05:14:00.318Z,97682.47
2023-05-10T05:16:28.190Z,97685.16
2023-05-10T05:18:56.926Z,97691.63
2023-05-10T05:21:26.087Z,97688.06
2023-05-10T05:23:53.810Z,97690.63
2023-05-10T05:26:22.260Z,97692.66
2023-05-10T05:28:52.781Z,97697.66
2023-05-10T05:31:20.580Z,97702.41
2023-05-10T05:33:48.369Z,97695.50
2023-05-10T05:36:16.029Z,97702.69
2023-05-10T05:38:44.096Z,97703.34
2023-05-10T05:41:11.898Z,97696.94
2023-05-10T05:43:39.638Z,97704.75
2023-05-10T05:46:07.400Z,97707.84
2023-05-10T05:48:35.224Z,97708.63
2023-05-10T05:51:03.789Z,97712.00
2023-05-10T05:53:32.373Z,97711.06
2023-05-10T05:56:00.106Z,97717.31
2023-05-10T05:58:28.004Z,97713.91
2023-05-10T06:00:55.714Z,97711.72
2023-05-10T06:03:23.802Z,97710.06
2023-05-10T06:05:51.554Z,97708.38
2023-05-10T06:08:19.308Z,97723.25
2023-05-10T06:10:47.140Z,97718.19
2023-05-10T06:13:14.906Z,97716.59
2023-05-10T06:15:42.599Z,97713.78
2023-05-10T06:18:10.550Z,97712.09
2023-05-10T06:20:38.312Z,97722.16
2023-05-10T06:23:06.353Z,97716.69
2023-05-10T06:25:34.103Z,97719.94
2023-05-10T06:28:02.184Z,97726.63
2023-05-10T06:30:30.433Z,97717.59
2023-05-10T06:32:58.459Z,97724.63
2023-05-10T06:35:26.180Z,97731.69
2023-05-10T06:37:54.357Z,97730.22
2023-05-10T06:40:22.058Z,97734.41
2023-05-10T06:42:49.855Z,97729.25
2023-05-10T06:45:17.804Z,97738.38
2023-05-10T06:47:45.906Z,97737.81
2023-05-10T06:50:13.923Z,97729.50
2023-05-10T06:52:41.651Z,97733.22
2023-05-10T06:55:10.017Z,97724.56
2023-05-10T06:57:37.806Z,97727.00
2023-05-10T07:00:06.344Z,97734.84
2023-05-10T07:02:34.403Z,97726.41
2023-05-10T07:05:03.445Z,97717.19
2023-05-10T07:07:31.521Z,97720.00
2023-05-10T07:09:59.272Z,97718.53
2023-05-10T07:12:27.133Z,97717.28
2023-05-10T07:14:54.880Z,97720.28
2023-05-10T07:17:22.837Z,97718.53
2023-05-10T07:19:50.847Z,97715.97
2023-05-10T07:22:18.621Z,97714.31
2023-05-10T07:24:46.570Z,97710.50
2023-05-10T07:27:14.293Z,97723.19
2023-05-10T07:29:41.993Z,97720.66
2023-05-10T07:32:09.720Z,97721.63
2023-05-10T07:34:37.552Z,97735.59
2023-05-10T07:37:05.228Z,97735.63
2023-05-10T07:39:32.961Z,97735.94
2023-05-10T07:42:00.656Z,97737.56
2023-05-10T07:44:28.419Z,97736.03
2023-05-10T07:46:56.712Z,97738.59
2023-05-10T07:49:27.234Z,97731.69
2023-05-10T07:51:55.076Z,97720.81
2023-05-10T07:54:22.930Z,97740.38
2023-05-10T07:56:50.685Z,97744.59
2023-05-10T07:59:18.674Z,97739.28
2023-05-10T08:01:46.356Z,97747.81
2023-05-10T08:04:14.213Z,97748.31
2023-05-10T08:06:42.034Z,97748.94
2023-05-10T08:09:10.008Z,97746.06
2023-05-10T08:11:37.752Z,97741.34
2023-05-10T08:14:05.635Z,97744.53
2023-05-10T08:16:33.578Z,97744.06
2023-05-10T08:19:01.453Z,97756.63
2023-05-10T08:21:29.221Z,97763.28
2023-05-10T08:23:57.002Z,97760.69
2023-05-10T08:26:24.691Z,97751.25
2023-05-10T08:28:52.444Z,97751.66
2023-05-10T08:31:20.240Z,97748.09
2023-05-10T08:33:48.072Z,97741.06
2023-05-10T08:36:20.589Z,97740.13
2023-05-10T08:38:52.170Z,97748.88
2023-05-10T08:41:23.172Z,97751.13
2023-05-10T08:43:54.498Z,97752.72
2023-05-10T08:46:23.091Z,97748.03
2023-05-10T08:48:51.475Z,97744.06
2023-05-10T08:51:20.562Z,97751.13
2023-05-10T08:53:48.308Z,97747.94
2023-05-10T08:56:16.753Z,97743.94
2023-05-10T08:58:44.933Z,97746.88
2023-05-10T09:01:12.653Z,97734.25
2023-05-10T09:03:40.527Z,97740.94
2023-05-10T09:06:08.872Z,97739.19
2023-05-10T09:08:36.901Z,97732.81
2023-05-10T09:11:04.572Z,97740.16
2023-05-10T09:13:32.308Z,97726.63
2023-05-10T09:16:04.430Z,97737.38
2023-05-10T09:18:41.635Z,97739.41
2023-05-10T09:21:09.887Z,97730.97
2023-05-10T09:23:37.845Z,97740.31
2023-05-10T09:26:06.246Z,97733.75
2023-05-10T09:28:54.845Z,97736.56
2023-05-10T09:31:22.821Z,97730.66
2023-05-10T09:33:50.690Z,97734.69
2023-05-10T09:36:18.579Z,97724.94
2023-05-10T09:38:49.953Z,97717.28
2023-05-10T09:41:24.144Z,97724.00
2023-05-10T09:43:56.076Z,97722.72
2023-05-10T09:46:23.897Z,97717.16
2023-05-10T09:48:51.714Z,97716.84
2023-05-10T09:51:23.179Z,97709.56
2023-05-10T09:54:13.212Z,97709.16
2023-05-10T09:56:41.647Z,97710.03
2023-05-10T09:59:11.517Z,97705.75
2023-05-10T10:01:39.809Z,97712.09
2023-05-10T10:04:10.178Z,97706.97
2023-05-10T10:06:40.960Z,97703.88
2023-05-10T10:09:09.103Z,97700.34
2023-05-10T10:11:37.564Z,97703.31
2023-05-10T10:14:06.015Z,97699.59
2023-05-10T10:16:33.905Z,97695.13
2023-05-10T10:19:01.798Z,97691.16
2023-05-10T10:21:29.604Z,97692.53
2023-05-10T10:23:57.394Z,97693.44
2023-05-10T10:26:26.127Z,97680.69
2023-05-10T10:29:12.681Z,97685.88
2023-05-10T10:31:42.969Z,97683.69
2023-05-10T10:34:11.892Z,97677.66
2023-05-10T10:36:58.064Z,97667.69
2023-05-10T10:39:28.731Z,97668.38
2023-05-10T10:41:57.388Z,97666.63
2023-05-10T10:44:26.163Z,97663.56
2023-05-10T10:47:32.123Z,97663.09
2023-05-10T10:50:03.006Z,97661.63
2023-05-10T10:52:46.154Z,97666.47
2023-05-10T10:55:14.908Z,97662.22
2023-05-10T10:57:48.769Z,97664.66
2023-05-10T11:00:19.536Z,97668.66
2023-05-10T11:03:20.544Z,97671.50
2023-05-10T11:05:49.038Z,97653.09
2023-05-10T11:08:30.167Z,97655.63
2023-05-10T11:11:00.963Z,97667.81
2023-05-10T11:13:33.474Z,97652.28
2023-05-10T11:16:11.813Z,97656.28
2023-05-10T11:18:39.723Z,97654.91
2023-05-10T11:21:11.495Z,97658.13
2023-05-10T11:23:48.212Z,97648.19
2023-05-10T11:26:15.928Z,97651.91
2023-05-10T11:28:47.469Z,97651.91
2023-05-10T11:31:18.816Z,97648.19
2023-05-10T11:33:51.042Z,97642.88
2023-05-10T11:36:20.235Z,97638.38
2023-05-10T11:38:48.418Z,97656.97
2023-05-10T11:41:17.755Z,97641.25
2023-05-10T11:43:47.766Z,97641.38
2023-05-10T11:46:15.903Z,97640.78
2023-05-10T11:48:43.764Z,97658.03
2023-05-10T11:51:11.774Z,97642.00
2023-05-10T11:53:39.494Z,97638.94
2023-05-10T11:56:10.924Z,97638.16
2023-05-10T11:58:39.429Z,97653.81
2023-05-10T12:48:36.315Z,97603.97
2023-05-10T12:51:04.287Z,97603.47
2023-05-10T12:53:32.161Z,97583.69
2023-05-10T12:55:59.863Z,97591.44
2023-05-10T12:58:35.576Z,97583.19
2023-05-10T13:01:04.190Z,97584.41
2023-05-10T13:03:31.994Z,97586.53
2023-05-10T13:05:59.681Z,97582.34
2023-05-10T13:08:27.515Z,97573.22
2023-05-10T13:10:55.392Z,97563.13
2023-05-10T13:13:23.256Z,97572.50
2023-05-10T13:15:51.077Z,97565.63
2023-05-10T13:18:18.867Z,97566.09
2023-05-10T13:20:46.653Z,97567.13
2023-05-10T13:23:14.423Z,97563.47
2023-05-10T13:25:42.064Z,97552.44
2023-05-10T13:28:09.868Z,97560.94
2023-05-10T13:30:37.556Z,97563.28
2023-05-10T13:33:05.384Z,97554.69
2023-05-10T13:35:33.111Z,97565.88
2023-05-10T13:38:00.934Z,97568.66
2023-05-10T13:40:29.212Z,97565.59
2023-05-10T13:42:57.055Z,97572.34
2023-05-10T13:45:24.936Z,97569.28
2023-05-10T13:47:53.207Z,97561.97
2023-05-10T13:50:21.181Z,97557.81
2023-05-10T13:52:49.057Z,97560.44
2023-05-10T13:55:17.003Z,97563.53
2023-05-10T13:57:45.044Z,97548.94
2023-05-10T14:00:13.305Z,97552.31
2023-05-10T14:02:41.584Z,97558.75
2023-05-10T14:05:09.478Z,97540.59
2023-05-10T14:07:37.236Z,97541.66
2023-05-10T14:10:05.235Z,97539.56
2023-05-10T14:12:33.121Z,97543.63
2023-05-10T14:15:01.200Z,97544.19
2023-05-10T14:17:29.000Z,97545.72
2023-05-10T14:19:56.716Z,97543.94
2023-05-10T14:22:24.775Z,97548.41
2023-05-10T14:24:52.540Z,97547.59
2023-05-10T14:27:20.477Z,97550.94
2023-05-10T14:29:48.706Z,97550.50
2023-05-10T14:32:16.471Z,97546.84
2023-05-10T14:34:44.272Z,97547.38
2023-05-10T14:37:12.497Z,97551.56
2023-05-10T14:39:40.293Z,97555.22
2023-05-10T14:42:08.029Z,97551.56
2023-05-10T14:44:35.749Z,97550.44
2023-05-10T14:47:03.422Z,97557.00
2023-05-10T14:49:31.291Z,97546.84
2023-05-10T14:51:58.985Z,97555.66
2023-05-10T14:54:26.965Z,97554.50
2023-05-10T14:56:54.612Z,97552.91
2023-05-10T14:59:22.644Z,97558.81
2023-05-10T15:01:50.836Z,97549.28
2023-05-10T15:04:19.246Z,97546.06
2023-05-10T15:06:47.507Z,97546.16
2023-05-10T15:09:15.399Z,97545.94
2023-05-10T15:11:43.342Z,97543.66
2023-05-10T15:14:11.065Z,97543.56
2023-05-10T15:16:38.845Z,97542.00
2023-05-10T15:19:06.694Z,97549.91
2023-05-10T15:21:39.705Z,97542.09
2023-05-10T15:24:07.536Z,97538.09
2023-05-10T15:26:35.214Z,97533.47
2023-05-10T15:29:03.360Z,97530.63
2023-05-10T15:31:31.131Z,97529.91
2023-05-10T15:34:01.863Z,97528.94
2023-05-10T15:36:29.629Z,97532.97
2023-05-10T15:38:57.312Z,97519.63
2023-05-10T15:41:25.736Z,97530.84
2023-05-10T15:43:54.368Z,97517.34
2023-05-10T15:46:22.725Z,97519.66
2023-05-10T15:48:50.586Z,97519.06
2023-05-10T15:51:19.637Z,97512.97
2023-05-10T15:54:05.415Z,97519.34
2023-05-10T15:56:35.176Z,97520.78
2023-05-10T15:59:03.663Z,97514.16
2023-05-10T16:01:32.381Z,97516.06
2023-05-10T16:04:00.801Z,97524.50
2023-05-10T16:06:28.494Z,97517.44
2023-05-10T16:08:56.768Z,97515.16
2023-05-10T16:11:24.442Z,97518.50
2023-05-10T16:13:52.801Z,97522.88
2023-05-10T16:16:20.640Z,97530.72
2023-05-10T16:18:48.643Z,97526.59
2023-05-10T16:21:16.590Z,97531.66
2023-05-10T16:23:46.481Z,97525.72
2023-05-10T16:26:14.235Z,97528.16
2023-05-10T16:28:41.954Z,97528.88
2023-05-10T16:31:09.792Z,97526.94
2023-05-10T16:33:37.515Z,97534.19
2023-05-10T16:36:06.175Z,97534.28
2023-05-10T16:38:33.883Z,97537.91
2023-05-10T16:41:04.754Z,97546.25
2023-05-10T16:43:32.817Z,97548.50
2023-05-10T16:46:00.776Z,97540.78
2023-05-10T16:48:28.558Z,97542.72
2023-05-10T16:50:56.393Z,97542.09
2023-05-10T16:53:24.038Z,97544.69
2023-05-10T16:55:51.841Z,97544.78
2023-05-10T16:58:19.548Z,97546.47
2023-05-10T17:00:47.276Z,97546.44
2023-05-10T17:03:15.113Z,97541.88
2023-05-10T17:05:43.220Z,97549.03
2023-05-10T17:08:10.926Z,97540.31
2023-05-10T17:10:40.238Z,97545.75
2023-05-10T17:13:09.835Z,97544.53
2023-05-10T17:15:38.901Z,97541.34
2023-05-10T17:18:07.458Z,97546.56
2023-05-10T17:20:35.271Z,97553.03
2023-05-10T17:23:03.377Z,97549.66
2023-05-10T17:25:31.200Z,97558.97
2023-05-10T17:27:58.883Z,97561.00
2023-05-10T17:30:28.740Z,97561.56
2023-05-10T17:32:56.644Z,97571.78
2023-05-10T17:35:24.573Z,97561.78
2023-05-10T17:37:52.315Z,97574.56
2023-05-10T17:40:20.061Z,97574.28
2023-05-10T17:42:47.746Z,97578.03
2023-05-10T17:45:15.986Z,97579.97
2023-05-10T17:47:43.797Z,97575.63
2023-05-10T17:50:11.534Z,97582.88
2023-05-10T17:52:39.461Z,97577.44
2023-05-10T17:55:07.653Z,97592.66
2023-05-10T17:57:38.053Z,97588.53
2023-05-10T18:00:08.566Z,97594.47
2023-05-10T18:02:36.929Z,97589.31
2023-05-10T18:05:05.061Z,97589.09
2023-05-10T18:07:32.920Z,97588.91
2023-05-10T18:10:01.122Z,97595.34
2023-05-10T18:12:28.908Z,97598.69
2023-05-10T18:14:56.960Z,97604.19
2023-05-10T18:17:24.840Z,97603.22
2023-05-10T18:19:52.611Z,97609.25
2023-05-10T18:22:20.270Z,97608.81
2023-05-10T18:24:48.171Z,97605.75
2023-05-10T18:27:15.829Z,97605.13
2023-05-10T18:29:43.494Z,97604.34
2023-05-10T18:32:11.465Z,97613.34
2023-05-10T18:34:39.171Z,97612.16
2023-05-10T18:37:08.014Z,97608.13
2023-05-10T18:39:38.876Z,97617.34
2023-05-10T18:42:06.636Z,97621.13
2023-05-10T18:44:34.399Z,97615.22
2023-05-10T18:47:02.129Z,97618.69
2023-05-10T18:49:29.899Z,97616.94
2023-05-10T18:51:57.704Z,97626.72
2023-05-10T18:54:25.460Z,97628.34
2023-05-10T18:56:53.206Z,97623.41
2023-05-10T18:59:21.145Z,97632.63
2023-05-10T19:01:51.067Z,97631.13
2023-05-10T19:04:19.039Z,97629.47
2023-05-10T19:06:46.812Z,97631.75
2023-05-10T19:09:14.476Z,97634.75
2023-05-10T19:11:43.291Z,97638.91
2023-05-10T19:14:10.971Z,97627.44
2023-05-10T19:16:42.313Z,97629.38
2023-05-10T19:19:10.411Z,97629.84
2023-05-10T19:21:38.190Z,97632.28
2023-05-10T19:24:06.247Z,97630.94
2023-05-10T19:26:36.288Z,97629.22
2023-05-10T19:29:04.142Z,97635.25
2023-05-10T19:31:33.412Z,97631.19
2023-05-10T19:34:02.479Z,97634.41
2023-05-10T19:36:31.193Z,97623.13
2023-05-10T19:38:58.868Z,97633.75
2023-05-10T19:41:26.832Z,97630.91
2023-05-10T19:43:54.833Z,97626.59
2023-05-10T19:46:22.738Z,97633.50
2023-05-10T19:48:51.920Z,97633.84
2023-05-10T19:51:19.603Z,97630.91
2023-05-10T19:53:47.342Z,97637.31
2023-05-10T19:56:16.494Z,97631.25
2023-05-10T19:58:44.406Z,97623.63
2023-05-10T20:01:12.153Z,97626.81
2023-05-10T20:03:39.940Z,97623.78
2023-05-10T20:06:07.657Z,97623.16
2023-05-10T20:08:35.440Z,97631.88
2023-05-10T20:11:03.910Z,97621.25
2023-05-10T20:13:31.890Z,97621.84
2023-05-10T20:15:59.850Z,97621.06
2023-05-10T20:18:27.841Z,97627.22
2023-05-10T20:20:57.305Z,97621.44
2023-05-10T20:23:25.319Z,97619.72
2023-05-10T20:25:54.691Z,97617.91
2023-05-10T20:28:23.948Z,97619.31
2023-05-10T20:30:53.172Z,97613.34
2023-05-10T20:33:24.378Z,97616.56
2023-05-10T20:35:52.478Z,97612.31
2023-05-10T20:38:21.060Z,97617.81
2023-05-10T20:40:49.101Z,97613.69
2023-05-10T20:43:16.875Z,97619.41
2023-05-10T20:45:44.550Z,97615.69
2023-05-10T20:48:12.304Z,97619.19
2023-05-10T20:50:40.131Z,97616.09
2023-05-10T20:53:07.850Z,97617.19
2023-05-10T20:55:35.613Z,97619.13
2023-05-10T20:58:04.992Z,97622.75
2023-05-10T21:00:32.933Z,97630.41
2023-05-10T21:03:00.773Z,97620.81
2023-05-10T21:05:28.606Z,97621.78
2023-05-10T21:07:56.504Z,97623.63
2023-05-10T21:10:25.552Z,97618.91
2023-05-10T21:12:53.303Z,97627.53
2023-05-10T21:15:22.591Z,97614.47
2023-05-10T21:17:50.418Z,97616.53
2023-05-10T21:20:18.428Z,97618.66
2023-05-10T21:22:46.583Z,97618.38
2023-05-10T21:25:14.376Z,97607.91
2023-05-10T21:27:42.197Z,97621.31
2023-05-10T21:30:10.235Z,97624.09
2023-05-10T21:32:38.077Z,97631.56
2023-05-10T21:35:06.350Z,97624.84
2023-05-10T21:37:34.138Z,97622.56
2023-05-10T21:40:02.052Z,97607.34
2023-05-10T21:42:30.585Z,97615.56
2023-05-10T21:44:58.269Z,97626.50
2023-05-10T21:47:26.024Z,97620.75
2023-05-10T21:49:53.702Z,97619.09
2023-05-10T21:52:21.465Z,97614.94
2023-05-10T21:54:49.166Z,97623.94
2023-05-10T21:57:17.028Z,97624.38
2023-05-10T21:59:44.874Z,97621.47
2023-05-10T22:02:12.742Z,97623.81
2023-05-10T22:04:40.647Z,97617.88
2023-05-10T22:07:08.402Z,97624.16
2023-05-10T22:09:36.089Z,97628.41
2023-05-10T22:12:03.962Z,97617.16
2023-05-10T22:14:31.644Z,97614.25
2023-05-10T22:16:59.437Z,97616.53
2023-05-10T22:19:27.143Z,97612.56
2023-05-10T22:21:54.837Z,97610.41
2023-05-10T22:24:22.660Z,97607.59
2023-05-10T22:26:50.447Z,97609.53
2023-05-10T22:29:18.165Z,97610.53
2023-05-10T22:31:46.408Z,97610.31
2023-05-10T22:34:14.389Z,97607.16
2023-05-10T22:36:42.282Z,97607.28
2023-05-10T22:39:11.710Z,97604.81
2023-05-10T22:41:39.853Z,97600.84
2023-05-10T22:44:08.280Z,97600.84
2023-05-10T22:46:37.118Z,97605.69
2023-05-10T22:49:06.945Z,97605.38
2023-05-10T22:51:34.675Z,97595.56
2023-05-10T22:54:02.463Z,97600.84
2023-05-10T22:56:30.800Z,97605.72
2023-05-10T22:58:58.560Z,97594.78
2023-05-10T23:01:26.338Z,97603.13
2023-05-10T23:03:55.962Z,97594.22
2023-05-10T23:06:24.701Z,97596.91
2023-05-10T23:08:52.440Z,97595.91
2023-05-10T23:11:20.086Z,97594.22
2023-05-10T23:13:48.696Z,97593.53
2023-05-10T23:16:16.885Z,97594.00
2023-05-10T23:18:44.690Z,97592.19
2023-05-10T23:21:12.461Z,97590.63
2023-05-10T23:23:41.449Z,97592.06
2023-05-10T23:26:09.668Z,97593.31
2023-05-10T23:28:37.410Z,97590.81
2023-05-10T23:31:05.160Z,97596.00
2023-05-10T23:33:33.001Z,97588.31
2023-05-10T23:36:00.919Z,97591.84
2023-05-10T23:38:29.600Z,97590.59
2023-05-10T23:40:57.330Z,97588.00
2023-05-10T23:43:25.530Z,97583.28
2023-05-10T23:45:56.919Z,97584.94
2023-05-10T23:48:24.743Z,97584.75
2023-05-10T23:50:52.419Z,97590.25
2023-05-10T23:53:20.192Z,97582.94
2023-05-10T23:55:49.299Z,97592.97
2023-05-10T23:58:17.054Z,97582.84
